sensor_id;sensor_type;location;lat;lon;timestamp;temperature;humidity
17619;DHT22;8928;51.678;6.074;2023-03-23T00:00:08;10.80;99.90
17619;DHT22;8928;51.678;6.074;2023-03-23T00:02:57;10.80;99.90
17619;DHT22;8928;51.678;6.074;2023-03-23T00:05:44;10.80;99.90
17619;DHT22;8928;51.678;6.074;2023-03-23T00:08:37;10.80;99.90
17619;DHT22;8928;51.678;6.074;2023-03-23T00:11:31;10.90;99.90
17619;DHT22;8928;51.678;6.074;2023-03-23T00:14:19;10.90;99.90
17619;DHT22;8928;51.678;6.074;2023-03-23T00:17:08;10.90;99.90
17619;DHT22;8928;51.678;6.074;2023-03-23T00:19:58;10.80;99.90
17619;DHT22;8928;51.678;6.074;2023-03-23T00:22:46;10.80;99.90
17619;DHT22;8928;51.678;6.074;2023-03-23T00:25:33;10.80;99.90
17619;DHT22;8928;51.678;6.074;2023-03-23T00:28:20;10.80;99.90
17619;DHT22;8928;51.678;6.074;2023-03-23T00:31:10;10.80;99.90
17619;DHT22;8928;51.678;6.074;2023-03-23T00:33:59;10.90;99.90
17619;DHT22;8928;51.678;6.074;2023-03-23T00:36:52;10.90;99.90
17619;DHT22;8928;51.678;6.074;2023-03-23T00:39:42;10.90;99.90
17619;DHT22;8928;51.678;6.074;2023-03-23T00:42:31;10.90;99.90
17619;DHT22;8928;51.678;6.074;2023-03-23T00:45:22;11.00;99.90
17619;DHT22;8928;51.678;6.074;2023-03-23T00:48:09;11.00;99.90
17619;DHT22;8928;51.678;6.074;2023-03-23T00:50:58;11.10;99.90
17619;DHT22;8928;51.678;6.074;2023-03-23T00:53:48;11.10;99.90
17619;DHT22;8928;51.678;6.074;2023-03-23T00:56:35;11.00;99.90
17619;DHT22;8928;51.678;6.074;2023-03-23T00:59:23;11.00;99.90
17619;DHT22;8928;51.678;6.074;2023-03-23T01:02:10;11.00;99.90
17619;DHT22;8928;51.678;6.074;2023-03-23T01:04:57;11.10;99.90
17619;DHT22;8928;51.678;6.074;2023-03-23T01:07:44;11.10;99.90
17619;DHT22;8928;51.678;6.074;2023-03-23T01:10:33;11.10;99.90
17619;DHT22;8928;51.678;6.074;2023-03-23T01:13:24;11.10;99.90
17619;DHT22;8928;51.678;6.074;2023-03-23T01:16:12;11.10;99.90
17619;DHT22;8928;51.678;6.074;2023-03-23T01:18:59;11.20;99.90
17619;DHT22;8928;51.678;6.074;2023-03-23T01:21:46;11.30;99.90
17619;DHT22;8928;51.678;6.074;2023-03-23T01:24:33;11.30;99.90
17619;DHT22;8928;51.678;6.074;2023-03-23T01:27:22;11.30;99.90
17619;DHT22;8928;51.678;6.074;2023-03-23T01:30:12;11.30;99.90
17619;DHT22;8928;51.678;6.074;2023-03-23T01:32:59;11.30;99.90
17619;DHT22;8928;51.678;6.074;2023-03-23T01:35:46;11.30;99.90
17619;DHT22;8928;51.678;6.074;2023-03-23T01:38:33;11.30;99.90
17619;DHT22;8928;51.678;6.074;2023-03-23T01:41:21;11.30;99.90
17619;DHT22;8928;51.678;6.074;2023-03-23T01:47:30;11.10;99.90
17619;DHT22;8928;51.678;6.074;2023-03-23T01:50:17;11.10;99.90
17619;DHT22;8928;51.678;6.074;2023-03-23T01:53:07;11.00;99.90
17619;DHT22;8928;51.678;6.074;2023-03-23T01:55:55;11.00;99.90
17619;DHT22;8928;51.678;6.074;2023-03-23T01:58:43;11.00;99.90
17619;DHT22;8928;51.678;6.074;2023-03-23T02:01:30;11.10;99.90
17619;DHT22;8928;51.678;6.074;2023-03-23T02:04:27;11.10;99.90
17619;DHT22;8928;51.678;6.074;2023-03-23T02:07:18;11.10;99.90
17619;DHT22;8928;51.678;6.074;2023-03-23T02:10:07;11.10;99.90
17619;DHT22;8928;51.678;6.074;2023-03-23T02:12:54;11.10;99.90
17619;DHT22;8928;51.678;6.074;2023-03-23T02:15:48;11.10;99.90
17619;DHT22;8928;51.678;6.074;2023-03-23T02:18:43;11.10;99.90
17619;DHT22;8928;51.678;6.074;2023-03-23T02:22:02;11.10;99.90
17619;DHT22;8928;51.678;6.074;2023-03-23T02:25:17;11.10;99.90
17619;DHT22;8928;51.678;6.074;2023-03-23T02:28:40;11.10;99.90
17619;DHT22;8928;51.678;6.074;2023-03-23T02:31:45;11.10;99.90
17619;DHT22;8928;51.678;6.074;2023-03-23T02:34:38;11.10;99.90
17619;DHT22;8928;51.678;6.074;2023-03-23T02:37:31;11.10;99.90
17619;DHT22;8928;51.678;6.074;2023-03-23T02:40:22;11.20;99.90
17619;DHT22;8928;51.678;6.074;2023-03-23T02:43:14;11.10;99.90
17619;DHT22;8928;51.678;6.074;2023-03-23T02:46:04;11.20;99.90
17619;DHT22;8928;51.678;6.074;2023-03-23T02:48:54;11.20;99.90
17619;DHT22;8928;51.678;6.074;2023-03-23T02:51:45;11.30;99.90
17619;DHT22;8928;51.678;6.074;2023-03-23T02:54:33;11.30;99.90
17619;DHT22;8928;51.678;6.074;2023-03-23T02:57:22;11.20;99.90
17619;DHT22;8928;51.678;6.074;2023-03-23T03:00:13;11.20;99.90
17619;DHT22;8928;51.678;6.074;2023-03-23T03:03:01;11.30;99.90
17619;DHT22;8928;51.678;6.074;2023-03-23T03:05:55;11.40;99.90
17619;DHT22;8928;51.678;6.074;2023-03-23T03:08:51;11.40;99.90
17619;DHT22;8928;51.678;6.074;2023-03-23T03:11:42;11.40;99.90
17619;DHT22;8928;51.678;6.074;2023-03-23T03:14:37;11.40;99.90
17619;DHT22;8928;51.678;6.074;2023-03-23T03:17:26;11.50;99.90
17619;DHT22;8928;51.678;6.074;2023-03-23T03:20:16;11.50;99.90
17619;DHT22;8928;51.678;6.074;2023-03-23T03:23:05;11.60;99.90
17619;DHT22;8928;51.678;6.074;2023-03-23T03:25:57;11.50;99.90
17619;DHT22;8928;51.678;6.074;2023-03-23T03:28:47;11.60;99.90
17619;DHT22;8928;51.678;6.074;2023-03-23T03:31:38;11.60;99.90
17619;DHT22;8928;51.678;6.074;2023-03-23T03:34:26;11.60;99.90
17619;DHT22;8928;51.678;6.074;2023-03-23T03:37:14;11.60;99.90
17619;DHT22;8928;51.678;6.074;2023-03-23T03:40:01;11.70;99.90
17619;DHT22;8928;51.678;6.074;2023-03-23T03:42:51;11.70;99.90
17619;DHT22;8928;51.678;6.074;2023-03-23T03:45:38;11.60;99.90
17619;DHT22;8928;51.678;6.074;2023-03-23T03:48:25;11.70;99.90
17619;DHT22;8928;51.678;6.074;2023-03-23T03:51:12;11.70;99.90
17619;DHT22;8928;51.678;6.074;2023-03-23T03:54:00;11.70;99.90
17619;DHT22;8928;51.678;6.074;2023-03-23T03:56:47;11.70;99.90
17619;DHT22;8928;51.678;6.074;2023-03-23T03:59:35;11.70;99.90
17619;DHT22;8928;51.678;6.074;2023-03-23T04:02:22;11.70;99.90
17619;DHT22;8928;51.678;6.074;2023-03-23T04:05:10;11.70;99.90
17619;DHT22;8928;51.678;6.074;2023-03-23T04:07:57;11.70;99.90
17619;DHT22;8928;51.678;6.074;2023-03-23T04:10:47;11.60;99.90
17619;DHT22;8928;51.678;6.074;2023-03-23T04:13:34;11.60;99.90
17619;DHT22;8928;51.678;6.074;2023-03-23T04:16:23;11.60;99.90
17619;DHT22;8928;51.678;6.074;2023-03-23T04:19:11;11.70;99.90
17619;DHT22;8928;51.678;6.074;2023-03-23T04:21:59;11.70;99.90
17619;DHT22;8928;51.678;6.074;2023-03-23T04:24:47;11.70;99.90
17619;DHT22;8928;51.678;6.074;2023-03-23T04:27:34;11.80;99.90
17619;DHT22;8928;51.678;6.074;2023-03-23T04:30:24;11.80;99.90
17619;DHT22;8928;51.678;6.074;2023-03-23T04:33:14;11.80;99.90
17619;DHT22;8928;51.678;6.074;2023-03-23T04:36:01;11.80;99.90
17619;DHT22;8928;51.678;6.074;2023-03-23T04:38:49;11.80;99.90
17619;DHT22;8928;51.678;6.074;2023-03-23T04:41:40;11.70;99.90
17619;DHT22;8928;51.678;6.074;2023-03-23T04:44:27;11.80;99.90
17619;DHT22;8928;51.678;6.074;2023-03-23T04:47:15;11.80;99.90
17619;DHT22;8928;51.678;6.074;2023-03-23T04:50:05;11.80;99.90
17619;DHT22;8928;51.678;6.074;2023-03-23T04:52:52;11.80;99.90
17619;DHT22;8928;51.678;6.074;2023-03-23T04:55:42;11.80;99.90
17619;DHT22;8928;51.678;6.074;2023-03-23T04:58:29;11.80;99.90
17619;DHT22;8928;51.678;6.074;2023-03-23T05:01:19;11.80;99.90
17619;DHT22;8928;51.678;6.074;2023-03-23T05:04:07;11.80;99.90
17619;DHT22;8928;51.678;6.074;2023-03-23T05:06:55;11.80;99.90
17619;DHT22;8928;51.678;6.074;2023-03-23T05:09:47;11.70;99.90
17619;DHT22;8928;51.678;6.074;2023-03-23T05:12:34;11.70;99.90
17619;DHT22;8928;51.678;6.074;2023-03-23T05:15:21;11.70;99.90
17619;DHT22;8928;51.678;6.074;2023-03-23T05:18:08;11.70;99.90
17619;DHT22;8928;51.678;6.074;2023-03-23T05:20:59;11.70;99.90
17619;DHT22;8928;51.678;6.074;2023-03-23T05:23:48;11.70;99.90
17619;DHT22;8928;51.678;6.074;2023-03-23T05:26:40;11.70;99.90
17619;DHT22;8928;51.678;6.074;2023-03-23T05:29:27;11.60;99.90
17619;DHT22;8928;51.678;6.074;2023-03-23T05:32:16;11.60;99.90
17619;DHT22;8928;51.678;6.074;2023-03-23T05:35:05;11.70;99.90
17619;DHT22;8928;51.678;6.074;2023-03-23T05:37:52;11.70;99.90
17619;DHT22;8928;51.678;6.074;2023-03-23T05:40:42;11.80;99.90
17619;DHT22;8928;51.678;6.074;2023-03-23T05:43:29;11.80;99.90
17619;DHT22;8928;51.678;6.074;2023-03-23T05:46:17;11.80;99.90
17619;DHT22;8928;51.678;6.074;2023-03-23T05:49:04;11.80;99.90
17619;DHT22;8928;51.678;6.074;2023-03-23T05:51:51;11.80;99.90
17619;DHT22;8928;51.678;6.074;2023-03-23T05:54:38;11.80;99.90
17619;DHT22;8928;51.678;6.074;2023-03-23T05:57:28;11.80;99.90
17619;DHT22;8928;51.678;6.074;2023-03-23T06:00:16;11.80;99.90
17619;DHT22;8928;51.678;6.074;2023-03-23T06:03:05;11.90;99.90
17619;DHT22;8928;51.678;6.074;2023-03-23T06:05:52;11.90;99.90
17619;DHT22;8928;51.678;6.074;2023-03-23T06:08:39;11.90;99.90
17619;DHT22;8928;51.678;6.074;2023-03-23T06:11:26;11.90;99.90
17619;DHT22;8928;51.678;6.074;2023-03-23T06:14:15;12.00;99.90
17619;DHT22;8928;51.678;6.074;2023-03-23T06:17:03;12.00;99.90
17619;DHT22;8928;51.678;6.074;2023-03-23T06:19:50;12.00;99.90
17619;DHT22;8928;51.678;6.074;2023-03-23T06:22:38;11.90;99.90
17619;DHT22;8928;51.678;6.074;2023-03-23T06:25:25;11.90;99.90
17619;DHT22;8928;51.678;6.074;2023-03-23T06:28:12;11.90;99.90
17619;DHT22;8928;51.678;6.074;2023-03-23T06:31:01;11.90;99.90
17619;DHT22;8928;51.678;6.074;2023-03-23T06:33:50;12.00;99.90
17619;DHT22;8928;51.678;6.074;2023-03-23T06:36:38;12.00;99.90
17619;DHT22;8928;51.678;6.074;2023-03-23T06:39:25;11.90;99.90
17619;DHT22;8928;51.678;6.074;2023-03-23T06:42:12;11.90;99.90
17619;DHT22;8928;51.678;6.074;2023-03-23T06:44:59;12.00;99.90
17619;DHT22;8928;51.678;6.074;2023-03-23T06:47:49;12.00;99.90
17619;DHT22;8928;51.678;6.074;2023-03-23T06:50:36;12.00;99.90
17619;DHT22;8928;51.678;6.074;2023-03-23T06:53:23;12.00;99.90
17619;DHT22;8928;51.678;6.074;2023-03-23T06:56:11;12.00;99.90
17619;DHT22;8928;51.678;6.074;2023-03-23T06:58:58;12.00;99.90
17619;DHT22;8928;51.678;6.074;2023-03-23T07:01:45;12.00;99.90
17619;DHT22;8928;51.678;6.074;2023-03-23T07:04:35;12.00;99.90
17619;DHT22;8928;51.678;6.074;2023-03-23T07:07:23;12.00;99.90
17619;DHT22;8928;51.678;6.074;2023-03-23T07:10:10;12.00;99.90
17619;DHT22;8928;51.678;6.074;2023-03-23T07:12:57;12.00;99.90
17619;DHT22;8928;51.678;6.074;2023-03-23T07:15:45;12.00;99.90
17619;DHT22;8928;51.678;6.074;2023-03-23T07:18:32;12.00;99.90
17619;DHT22;8928;51.678;6.074;2023-03-23T07:21:20;12.00;99.90
17619;DHT22;8928;51.678;6.074;2023-03-23T07:24:10;12.00;99.90
17619;DHT22;8928;51.678;6.074;2023-03-23T07:26:59;12.00;99.90
17619;DHT22;8928;51.678;6.074;2023-03-23T07:29:47;12.00;99.90
17619;DHT22;8928;51.678;6.074;2023-03-23T07:32:34;12.00;99.90
17619;DHT22;8928;51.678;6.074;2023-03-23T07:35:21;12.00;99.90
17619;DHT22;8928;51.678;6.074;2023-03-23T07:38:10;12.00;99.90
17619;DHT22;8928;51.678;6.074;2023-03-23T07:40:57;11.90;99.90
17619;DHT22;8928;51.678;6.074;2023-03-23T07:43:44;11.90;99.90
17619;DHT22;8928;51.678;6.074;2023-03-23T07:46:32;11.90;99.90
17619;DHT22;8928;51.678;6.074;2023-03-23T07:49:19;11.80;99.90
17619;DHT22;8928;51.678;6.074;2023-03-23T07:52:06;11.60;99.90
17619;DHT22;8928;51.678;6.074;2023-03-23T07:54:55;11.20;99.90
17619;DHT22;8928;51.678;6.074;2023-03-23T07:57:42;11.00;99.90
17619;DHT22;8928;51.678;6.074;2023-03-23T08:00:30;10.90;99.90
17619;DHT22;8928;51.678;6.074;2023-03-23T08:03:18;10.70;99.90
17619;DHT22;8928;51.678;6.074;2023-03-23T08:06:06;10.60;99.90
17619;DHT22;8928;51.678;6.074;2023-03-23T08:08:54;10.50;99.90
17619;DHT22;8928;51.678;6.074;2023-03-23T08:11:44;10.40;99.90
17619;DHT22;8928;51.678;6.074;2023-03-23T08:14:31;10.30;99.90
17619;DHT22;8928;51.678;6.074;2023-03-23T08:17:18;10.40;99.90
17619;DHT22;8928;51.678;6.074;2023-03-23T08:20:06;10.40;99.90
17619;DHT22;8928;51.678;6.074;2023-03-23T08:22:56;10.30;99.90
17619;DHT22;8928;51.678;6.074;2023-03-23T08:25:44;10.20;99.90
17619;DHT22;8928;51.678;6.074;2023-03-23T08:28:33;9.90;99.90
17619;DHT22;8928;51.678;6.074;2023-03-23T08:31:20;9.70;99.90
17619;DHT22;8928;51.678;6.074;2023-03-23T08:34:08;9.60;99.90
17619;DHT22;8928;51.678;6.074;2023-03-23T08:36:55;9.40;99.90
17619;DHT22;8928;51.678;6.074;2023-03-23T08:39:42;9.40;99.90
17619;DHT22;8928;51.678;6.074;2023-03-23T08:42:30;9.40;99.90
17619;DHT22;8928;51.678;6.074;2023-03-23T08:45:20;9.50;99.90
17619;DHT22;8928;51.678;6.074;2023-03-23T08:48:08;9.60;99.90
17619;DHT22;8928;51.678;6.074;2023-03-23T08:50:56;9.70;99.90
17619;DHT22;8928;51.678;6.074;2023-03-23T08:53:44;9.80;99.90
17619;DHT22;8928;51.678;6.074;2023-03-23T08:56:31;9.90;99.90
17619;DHT22;8928;51.678;6.074;2023-03-23T08:59:18;9.90;99.90
17619;DHT22;8928;51.678;6.074;2023-03-23T09:02:09;9.90;99.90
17619;DHT22;8928;51.678;6.074;2023-03-23T09:04:57;10.00;99.90
17619;DHT22;8928;51.678;6.074;2023-03-23T09:07:47;10.10;99.90
17619;DHT22;8928;51.678;6.074;2023-03-23T09:10:35;10.20;99.90
17619;DHT22;8928;51.678;6.074;2023-03-23T09:13:22;10.40;99.90
17619;DHT22;8928;51.678;6.074;2023-03-23T09:16:09;10.50;99.90
17619;DHT22;8928;51.678;6.074;2023-03-23T09:18:58;10.60;99.90
17619;DHT22;8928;51.678;6.074;2023-03-23T09:21:45;10.80;99.90
17619;DHT22;8928;51.678;6.074;2023-03-23T09:24:33;10.90;99.90
17619;DHT22;8928;51.678;6.074;2023-03-23T09:27:20;10.80;99.90
17619;DHT22;8928;51.678;6.074;2023-03-23T09:30:09;10.60;99.90
17619;DHT22;8928;51.678;6.074;2023-03-23T09:32:57;10.70;99.90
17619;DHT22;8928;51.678;6.074;2023-03-23T09:35:47;11.20;99.90
17619;DHT22;8928;51.678;6.074;2023-03-23T09:38:35;11.60;99.90
17619;DHT22;8928;51.678;6.074;2023-03-23T09:41:38;12.10;99.90
17619;DHT22;8928;51.678;6.074;2023-03-23T09:44:36;12.20;99.90
17619;DHT22;8928;51.678;6.074;2023-03-23T09:47:31;12.00;99.90
17619;DHT22;8928;51.678;6.074;2023-03-23T09:50:24;11.60;99.90
17619;DHT22;8928;51.678;6.074;2023-03-23T09:53:16;11.30;99.90
17619;DHT22;8928;51.678;6.074;2023-03-23T09:56:10;11.20;99.90
17619;DHT22;8928;51.678;6.074;2023-03-23T09:59:02;11.30;99.90
17619;DHT22;8928;51.678;6.074;2023-03-23T10:01:51;11.50;99.90
17619;DHT22;8928;51.678;6.074;2023-03-23T10:04:43;11.40;99.90
17619;DHT22;8928;51.678;6.074;2023-03-23T10:07:31;11.40;99.90
17619;DHT22;8928;51.678;6.074;2023-03-23T10:10:23;11.40;99.90
17619;DHT22;8928;51.678;6.074;2023-03-23T10:13:19;11.30;99.90
17619;DHT22;8928;51.678;6.074;2023-03-23T10:16:15;11.30;99.90
17619;DHT22;8928;51.678;6.074;2023-03-23T10:19:10;11.40;99.90
17619;DHT22;8928;51.678;6.074;2023-03-23T10:22:02;11.40;99.90
17619;DHT22;8928;51.678;6.074;2023-03-23T10:24:51;11.40;99.90
17619;DHT22;8928;51.678;6.074;2023-03-23T10:27:48;11.90;99.90
17619;DHT22;8928;51.678;6.074;2023-03-23T10:30:38;12.50;99.90
17619;DHT22;8928;51.678;6.074;2023-03-23T10:33:30;13.10;99.90
17619;DHT22;8928;51.678;6.074;2023-03-23T10:36:24;13.50;99.90
17619;DHT22;8928;51.678;6.074;2023-03-23T10:39:14;13.70;99.90
17619;DHT22;8928;51.678;6.074;2023-03-23T10:42:03;13.70;99.90
17619;DHT22;8928;51.678;6.074;2023-03-23T10:44:55;13.80;99.90
17619;DHT22;8928;51.678;6.074;2023-03-23T10:47:46;14.20;99.90
17619;DHT22;8928;51.678;6.074;2023-03-23T10:50:36;14.40;99.90
17619;DHT22;8928;51.678;6.074;2023-03-23T10:53:29;14.60;99.90
17619;DHT22;8928;51.678;6.074;2023-03-23T10:56:22;14.80;99.90
17619;DHT22;8928;51.678;6.074;2023-03-23T10:59:14;14.90;99.90
17619;DHT22;8928;51.678;6.074;2023-03-23T11:02:13;15.10;99.90
17619;DHT22;8928;51.678;6.074;2023-03-23T11:05:03;15.30;99.90
17619;DHT22;8928;51.678;6.074;2023-03-23T11:07:53;15.40;99.90
17619;DHT22;8928;51.678;6.074;2023-03-23T11:10:47;15.00;99.90
17619;DHT22;8928;51.678;6.074;2023-03-23T11:13:39;14.80;99.90
17619;DHT22;8928;51.678;6.074;2023-03-23T11:16:28;15.00;99.90
17619;DHT22;8928;51.678;6.074;2023-03-23T11:19:22;15.00;99.90
17619;DHT22;8928;51.678;6.074;2023-03-23T11:22:18;15.00;99.90
17619;DHT22;8928;51.678;6.074;2023-03-23T11:25:12;15.00;99.90
17619;DHT22;8928;51.678;6.074;2023-03-23T11:28:00;15.40;99.90
17619;DHT22;8928;51.678;6.074;2023-03-23T11:30:48;15.60;99.90
17619;DHT22;8928;51.678;6.074;2023-03-23T11:33:37;15.00;99.90
17619;DHT22;8928;51.678;6.074;2023-03-23T11:36:32;14.90;99.90
17619;DHT22;8928;51.678;6.074;2023-03-23T11:39:22;15.10;99.90
17619;DHT22;8928;51.678;6.074;2023-03-23T11:42:16;15.30;99.90
17619;DHT22;8928;51.678;6.074;2023-03-23T11:45:19;15.70;99.90
17619;DHT22;8928;51.678;6.074;2023-03-23T11:48:13;16.00;99.90
17619;DHT22;8928;51.678;6.074;2023-03-23T11:51:05;16.20;99.90
17619;DHT22;8928;51.678;6.074;2023-03-23T11:53:58;16.40;99.90
17619;DHT22;8928;51.678;6.074;2023-03-23T11:56:47;16.40;99.90
17619;DHT22;8928;51.678;6.074;2023-03-23T11:59:35;15.70;99.90
17619;DHT22;8928;51.678;6.074;2023-03-23T12:02:36;15.40;99.90
17619;DHT22;8928;51.678;6.074;2023-03-23T12:05:32;15.10;99.90
17619;DHT22;8928;51.678;6.074;2023-03-23T12:08:29;14.70;99.90
17619;DHT22;8928;51.678;6.074;2023-03-23T12:11:26;14.50;99.90
17619;DHT22;8928;51.678;6.074;2023-03-23T12:14:19;14.20;99.90
17619;DHT22;8928;51.678;6.074;2023-03-23T12:17:17;14.10;99.90
17619;DHT22;8928;51.678;6.074;2023-03-23T12:20:17;14.70;99.90
17619;DHT22;8928;51.678;6.074;2023-03-23T12:23:19;15.80;99.90
17619;DHT22;8928;51.678;6.074;2023-03-23T12:26:17;17.40;99.90
17619;DHT22;8928;51.678;6.074;2023-03-23T12:29:30;17.60;99.90
17619;DHT22;8928;51.678;6.074;2023-03-23T12:32:52;17.80;99.90
17619;DHT22;8928;51.678;6.074;2023-03-23T12:35:50;19.00;99.90
17619;DHT22;8928;51.678;6.074;2023-03-23T12:38:57;18.30;99.90
17619;DHT22;8928;51.678;6.074;2023-03-23T12:41:51;18.00;99.90
17619;DHT22;8928;51.678;6.074;2023-03-23T12:44:46;17.80;99.90
17619;DHT22;8928;51.678;6.074;2023-03-23T12:47:38;17.50;99.90
17619;DHT22;8928;51.678;6.074;2023-03-23T12:50:30;18.20;99.90
17619;DHT22;8928;51.678;6.074;2023-03-23T12:53:22;19.00;99.90
17619;DHT22;8928;51.678;6.074;2023-03-23T12:56:14;19.80;99.90
17619;DHT22;8928;51.678;6.074;2023-03-23T12:59:09;20.40;99.90
17619;DHT22;8928;51.678;6.074;2023-03-23T13:02:05;19.90;99.90
17619;DHT22;8928;51.678;6.074;2023-03-23T13:04:59;19.80;99.90
17619;DHT22;8928;51.678;6.074;2023-03-23T13:07:56;20.10;99.90
17619;DHT22;8928;51.678;6.074;2023-03-23T13:10:46;20.00;99.90
17619;DHT22;8928;51.678;6.074;2023-03-23T13:13:45;18.70;99.90
17619;DHT22;8928;51.678;6.074;2023-03-23T13:16:41;18.50;99.90
17619;DHT22;8928;51.678;6.074;2023-03-23T13:19:51;18.70;99.90
17619;DHT22;8928;51.678;6.074;2023-03-23T13:22:42;17.90;99.90
17619;DHT22;8928;51.678;6.074;2023-03-23T13:25:44;17.90;99.90
17619;DHT22;8928;51.678;6.074;2023-03-23T13:28:48;18.60;99.90
17619;DHT22;8928;51.678;6.074;2023-03-23T13:31:36;19.40;99.90
17619;DHT22;8928;51.678;6.074;2023-03-23T13:34:29;19.60;99.90
17619;DHT22;8928;51.678;6.074;2023-03-23T13:37:24;20.00;99.90
17619;DHT22;8928;51.678;6.074;2023-03-23T13:40:21;18.80;99.90
17619;DHT22;8928;51.678;6.074;2023-03-23T13:43:11;17.80;99.90
17619;DHT22;8928;51.678;6.074;2023-03-23T13:46:08;17.30;99.90
17619;DHT22;8928;51.678;6.074;2023-03-23T13:49:17;18.10;99.90
17619;DHT22;8928;51.678;6.074;2023-03-23T13:52:17;18.20;99.90
17619;DHT22;8928;51.678;6.074;2023-03-23T13:55:27;18.10;99.90
17619;DHT22;8928;51.678;6.074;2023-03-23T13:58:23;19.70;99.90
17619;DHT22;8928;51.678;6.074;2023-03-23T14:01:14;21.60;99.90
17619;DHT22;8928;51.678;6.074;2023-03-23T14:04:05;20.80;99.90
17619;DHT22;8928;51.678;6.074;2023-03-23T14:06:53;20.50;99.90
17619;DHT22;8928;51.678;6.074;2023-03-23T14:09:41;19.40;99.90
17619;DHT22;8928;51.678;6.074;2023-03-23T14:12:30;18.30;99.90
17619;DHT22;8928;51.678;6.074;2023-03-23T14:15:18;17.70;99.90
17619;DHT22;8928;51.678;6.074;2023-03-23T14:18:05;17.10;99.90
17619;DHT22;8928;51.678;6.074;2023-03-23T14:20:53;16.80;99.90
17619;DHT22;8928;51.678;6.074;2023-03-23T14:23:40;16.30;99.90
17619;DHT22;8928;51.678;6.074;2023-03-23T14:26:27;15.70;99.90
17619;DHT22;8928;51.678;6.074;2023-03-23T14:29:15;14.90;99.90
17619;DHT22;8928;51.678;6.074;2023-03-23T14:32:06;13.70;99.90
17619;DHT22;8928;51.678;6.074;2023-03-23T14:34:53;12.80;99.90
17619;DHT22;8928;51.678;6.074;2023-03-23T14:37:41;12.40;99.90
17619;DHT22;8928;51.678;6.074;2023-03-23T14:40:29;11.90;99.90
17619;DHT22;8928;51.678;6.074;2023-03-23T14:43:20;11.60;99.90
17619;DHT22;8928;51.678;6.074;2023-03-23T14:46:11;11.60;99.90
17619;DHT22;8928;51.678;6.074;2023-03-23T14:49:00;11.70;99.90
17619;DHT22;8928;51.678;6.074;2023-03-23T14:51:50;11.90;99.90
17619;DHT22;8928;51.678;6.074;2023-03-23T14:54:38;12.30;99.90
17619;DHT22;8928;51.678;6.074;2023-03-23T14:57:28;13.70;99.90
17619;DHT22;8928;51.678;6.074;2023-03-23T15:00:18;15.40;99.90
17619;DHT22;8928;51.678;6.074;2023-03-23T15:03:11;17.10;99.90
17619;DHT22;8928;51.678;6.074;2023-03-23T15:06:03;18.50;99.90
17619;DHT22;8928;51.678;6.074;2023-03-23T15:08:54;19.40;99.90
17619;DHT22;8928;51.678;6.074;2023-03-23T15:11:41;20.00;99.90
17619;DHT22;8928;51.678;6.074;2023-03-23T15:14:30;20.80;99.90
17619;DHT22;8928;51.678;6.074;2023-03-23T15:17:20;21.00;99.90
17619;DHT22;8928;51.678;6.074;2023-03-23T15:20:17;21.30;99.90
17619;DHT22;8928;51.678;6.074;2023-03-23T15:23:06;21.10;99.90
17619;DHT22;8928;51.678;6.074;2023-03-23T15:25:56;19.70;99.90
17619;DHT22;8928;51.678;6.074;2023-03-23T15:28:43;18.50;99.90
17619;DHT22;8928;51.678;6.074;2023-03-23T15:31:30;16.90;99.90
17619;DHT22;8928;51.678;6.074;2023-03-23T15:34:29;16.00;99.90
17619;DHT22;8928;51.678;6.074;2023-03-23T15:37:21;15.30;99.90
17619;DHT22;8928;51.678;6.074;2023-03-23T15:40:15;14.70;99.90
17619;DHT22;8928;51.678;6.074;2023-03-23T15:43:08;14.20;99.90
17619;DHT22;8928;51.678;6.074;2023-03-23T15:46:04;13.90;99.90
17619;DHT22;8928;51.678;6.074;2023-03-23T15:48:53;13.70;99.90
17619;DHT22;8928;51.678;6.074;2023-03-23T15:51:48;13.50;99.90
17619;DHT22;8928;51.678;6.074;2023-03-23T15:54:37;13.50;99.90
17619;DHT22;8928;51.678;6.074;2023-03-23T15:57:24;13.90;99.90
17619;DHT22;8928;51.678;6.074;2023-03-23T16:00:12;14.30;99.90
17619;DHT22;8928;51.678;6.074;2023-03-23T16:03:03;14.30;99.90
17619;DHT22;8928;51.678;6.074;2023-03-23T16:05:51;14.20;99.90
17619;DHT22;8928;51.678;6.074;2023-03-23T16:08:38;14.10;99.90
17619;DHT22;8928;51.678;6.074;2023-03-23T16:11:29;14.20;99.90
17619;DHT22;8928;51.678;6.074;2023-03-23T16:14:16;14.40;99.90
17619;DHT22;8928;51.678;6.074;2023-03-23T16:17:03;14.20;99.90
17619;DHT22;8928;51.678;6.074;2023-03-23T16:19:50;13.80;99.90
17619;DHT22;8928;51.678;6.074;2023-03-23T16:22:38;13.60;99.90
17619;DHT22;8928;51.678;6.074;2023-03-23T16:25:25;13.30;99.90
17619;DHT22;8928;51.678;6.074;2023-03-23T16:28:14;13.20;99.90
17619;DHT22;8928;51.678;6.074;2023-03-23T16:31:01;13.00;99.90
17619;DHT22;8928;51.678;6.074;2023-03-23T16:33:49;13.00;99.90
17619;DHT22;8928;51.678;6.074;2023-03-23T16:36:36;13.00;99.90
17619;DHT22;8928;51.678;6.074;2023-03-23T16:39:23;12.90;99.90
17619;DHT22;8928;51.678;6.074;2023-03-23T16:42:10;12.90;99.90
17619;DHT22;8928;51.678;6.074;2023-03-23T16:44:58;12.80;99.90
17619;DHT22;8928;51.678;6.074;2023-03-23T16:47:46;12.70;99.90
17619;DHT22;8928;51.678;6.074;2023-03-23T16:50:34;12.80;99.90
17619;DHT22;8928;51.678;6.074;2023-03-23T16:53:21;12.90;99.90
17619;DHT22;8928;51.678;6.074;2023-03-23T16:56:09;13.00;99.90
17619;DHT22;8928;51.678;6.074;2023-03-23T16:58:56;12.90;99.90
17619;DHT22;8928;51.678;6.074;2023-03-23T17:01:45;12.80;99.90
17619;DHT22;8928;51.678;6.074;2023-03-23T17:04:33;12.60;99.90
17619;DHT22;8928;51.678;6.074;2023-03-23T17:07:20;12.50;99.90
17619;DHT22;8928;51.678;6.074;2023-03-23T17:10:09;12.50;99.90
17619;DHT22;8928;51.678;6.074;2023-03-23T17:12:56;12.40;99.90
17619;DHT22;8928;51.678;6.074;2023-03-23T17:15:43;12.30;99.90
17619;DHT22;8928;51.678;6.074;2023-03-23T17:18:32;12.30;99.90
17619;DHT22;8928;51.678;6.074;2023-03-23T17:21:19;12.20;99.90
17619;DHT22;8928;51.678;6.074;2023-03-23T17:24:10;12.20;99.90
17619;DHT22;8928;51.678;6.074;2023-03-23T17:26:57;12.10;99.90
17619;DHT22;8928;51.678;6.074;2023-03-23T17:29:44;12.00;99.90
17619;DHT22;8928;51.678;6.074;2023-03-23T17:32:31;11.90;99.90
17619;DHT22;8928;51.678;6.074;2023-03-23T17:35:20;11.80;99.90
17619;DHT22;8928;51.678;6.074;2023-03-23T17:38:07;11.70;99.90
17619;DHT22;8928;51.678;6.074;2023-03-23T17:40:57;11.60;99.90
17619;DHT22;8928;51.678;6.074;2023-03-23T17:43:45;11.50;99.90
17619;DHT22;8928;51.678;6.074;2023-03-23T17:46:32;11.40;99.90
17619;DHT22;8928;51.678;6.074;2023-03-23T17:49:19;11.30;99.90
17619;DHT22;8928;51.678;6.074;2023-03-23T17:52:08;11.30;99.90
17619;DHT22;8928;51.678;6.074;2023-03-23T17:54:55;11.30;99.90
17619;DHT22;8928;51.678;6.074;2023-03-23T17:57:42;11.30;99.90
17619;DHT22;8928;51.678;6.074;2023-03-23T18:00:29;11.20;99.90
17619;DHT22;8928;51.678;6.074;2023-03-23T18:03:16;11.20;99.90
17619;DHT22;8928;51.678;6.074;2023-03-23T18:06:05;11.20;99.90
17619;DHT22;8928;51.678;6.074;2023-03-23T18:08:54;11.10;99.90
17619;DHT22;8928;51.678;6.074;2023-03-23T18:11:41;11.10;99.90
17619;DHT22;8928;51.678;6.074;2023-03-23T18:14:28;11.10;99.90
17619;DHT22;8928;51.678;6.074;2023-03-23T18:17:15;11.10;99.90